North Battleford Airport
CYQW : now visible

Airfield :











YOU CAN JOIN US ON...

 
LOGIN :

Register | Disclaimer

   EN    FR    IT 

 









Legend :    VFR   Marginal VFR   IFR   Intensive IFR   Very Intensive IFR
Visi :
Ceiling :
>= 8 km
>= 3000ft
5 to 8 km
1000 to 3000 ft
1500m to 5 km
500 to 1000 ft
800 to 1500m
200 to 500 ft
< 800m
< 200 ft
Symbols :   Thunderstorms  Fog  Heavy snow  Heavy precipitations  Wind > 20 kt






- Airport Elevation : 1799 ft
- IATA code : YQW


CYQW - North Battleford

CURRENT METAR :
  • 220200Z AUTO 31011G16KT 9SM OVC045 M04/M09 A3026 RMK SLP288

EXPIRED METARs :
  • 220124Z AUTO 31011G17KT 9SM OVC043 M04/M08 A3025 RMK SLP284
  • 220100Z AUTO 33016KT 9SM -SN OVC041 M04/M08 A3024 RMK SLP280
  • 220053Z AUTO 31013G20KT 9SM -SN FEW028 OVC041 M03/M08 A3024 RMK SLP278
  • 220000Z AUTO 31010KT 9SM -SN BKN030 OVC038 M03/M07 A3022 RMK SLP270

TAF TAF CYQW
Valid from the 22 at 00:00 until the 22 at 12:00 UTC


212338Z 2200/2212 30010KT P6SM BKN030 OVC070
FM220300 30010KT P6SM SCT020 BKN040
TEMPO 2203/2212 5SM -SN BKN020 OVC040 RMK FCST BASED ON AUTO OBS. NXT FCST BY 220600Z
CZWG FIR / North America



MET'MAP, your aeronautical weather chart ! - Copyright ORBIFLY December 2007 - Disclaimer

ORBIFLY MET'MAP TEAM :

Programming & Development : Alexandra Zaïnal
Concept & original design : Baudouin d'Aumeries
Assistance for programming : Marc-Olivier Méhu
Technical & hardware support : Manuel Goepfert

Contact : metmap@orbifly.com




SOURCES & CREDITS :

   NOAA       Earth
Advisory